createdAt,value
2023-01-09T00:01:00.260Z,97.50
2023-01-09T00:03:27.162Z,97.50
2023-01-09T00:05:54.065Z,97.50
2023-01-09T00:08:20.961Z,97.60
2023-01-09T00:10:50.527Z,97.60
2023-01-09T00:13:18.256Z,97.70
2023-01-09T00:15:45.587Z,97.70
2023-01-09T00:18:12.514Z,97.70
2023-01-09T00:20:39.389Z,97.70
2023-01-09T00:23:06.990Z,97.70
2023-01-09T00:25:33.926Z,97.70
2023-01-09T00:28:00.835Z,97.70
2023-01-09T00:30:27.895Z,97.70
2023-01-09T00:32:56.468Z,97.70
2023-01-09T00:35:25.886Z,97.70
2023-01-09T00:37:52.797Z,97.70
2023-01-09T00:40:20.392Z,97.70
2023-01-09T00:42:54.900Z,97.70
2023-01-09T00:45:29.179Z,97.80
2023-01-09T00:48:04.898Z,97.80
2023-01-09T00:50:34.037Z,97.80
2023-01-09T00:53:09.242Z,97.90
2023-01-09T00:55:37.849Z,97.90
2023-01-09T00:58:05.257Z,97.90
2023-01-09T01:00:32.186Z,97.90
2023-01-09T01:02:59.193Z,97.90
2023-01-09T01:05:44.507Z,97.90
2023-01-09T01:08:18.618Z,97.90
2023-01-09T01:10:47.869Z,97.90
2023-01-09T01:13:15.384Z,97.90
2023-01-09T01:15:44.076Z,98.00
2023-01-09T01:18:12.777Z,98.00
2023-01-09T01:20:44.432Z,98.10
2023-01-09T01:23:11.552Z,98.00
2023-01-09T01:25:40.604Z,98.00
2023-01-09T01:28:08.450Z,97.90
2023-01-09T01:30:40.643Z,98.00
2023-01-09T01:33:08.171Z,97.90
2023-01-09T01:35:35.177Z,97.90
2023-01-09T01:38:02.129Z,97.90
2023-01-09T01:40:29.846Z,97.80
2023-01-09T01:42:58.612Z,97.70
2023-01-09T01:45:29.055Z,97.60
2023-01-09T01:48:24.666Z,97.50
2023-01-09T01:51:04.525Z,97.40
2023-01-09T01:53:54.813Z,97.40
2023-01-09T01:56:37.021Z,97.40
2023-01-09T01:59:06.280Z,97.40
2023-01-09T02:01:33.820Z,97.40
2023-01-09T02:04:02.688Z,97.40
2023-01-09T02:06:31.713Z,97.50
2023-01-09T02:08:58.707Z,97.50
2023-01-09T02:11:25.634Z,97.50
2023-01-09T02:13:52.900Z,97.50
2023-01-09T02:16:47.820Z,97.50
2023-01-09T02:19:47.166Z,97.60
2023-01-09T02:22:35.646Z,97.70
2023-01-09T02:25:38.109Z,97.80
2023-01-09T02:28:53.217Z,97.80
2023-01-09T02:31:33.217Z,97.80
2023-01-09T02:34:21.003Z,98.10
2023-01-09T02:37:04.604Z,97.80
2023-01-09T02:39:43.469Z,97.80
2023-01-09T02:42:25.281Z,97.80
2023-01-09T02:44:52.150Z,97.90
2023-01-09T02:47:18.943Z,97.90
2023-01-09T02:49:54.081Z,97.90
2023-01-09T02:52:55.773Z,97.90
2023-01-09T02:56:04.069Z,98.00
2023-01-09T02:59:25.434Z,98.00
2023-01-09T03:02:13.864Z,98.00
2023-01-09T03:05:06.949Z,98.00
2023-01-09T03:07:41.929Z,98.00
2023-01-09T03:10:49.889Z,98.10
2023-01-09T03:13:20.321Z,98.20
2023-01-09T03:15:51.217Z,98.10
2023-01-09T03:18:22.873Z,98.10
2023-01-09T03:20:51.470Z,98.10
2023-01-09T03:23:18.372Z,98.10
2023-01-09T03:25:45.351Z,98.00
2023-01-09T03:28:28.746Z,98.10
2023-01-09T03:30:55.850Z,98.10
2023-01-09T03:33:22.756Z,98.00
2023-01-09T03:35:49.688Z,98.00
2023-01-09T03:38:16.575Z,98.00
2023-01-09T03:40:43.791Z,98.00
2023-01-09T03:43:10.874Z,98.00
2023-01-09T03:45:37.883Z,98.00
2023-01-09T03:48:05.032Z,98.00
2023-01-09T03:50:32.209Z,98.10
2023-01-09T03:52:59.138Z,98.00
2023-01-09T03:55:26.126Z,98.10
2023-01-09T03:57:54.094Z,98.10
2023-01-09T04:00:21.706Z,98.10
2023-01-09T04:02:48.634Z,98.20
2023-01-09T04:05:15.537Z,98.20
2023-01-09T04:07:42.427Z,98.10
2023-01-09T04:10:11.250Z,98.10
2023-01-09T04:12:38.175Z,98.10
2023-01-09T04:15:05.818Z,98.00
2023-01-09T04:17:32.711Z,98.00
2023-01-09T04:19:59.615Z,97.90
2023-01-09T04:22:26.647Z,98.00
2023-01-09T04:24:53.515Z,98.00
2023-01-09T04:27:20.380Z,98.00
2023-01-09T04:29:47.321Z,98.00
2023-01-09T04:32:14.212Z,98.00
2023-01-09T04:34:41.145Z,98.00
2023-01-09T04:37:08.008Z,98.00
2023-01-09T04:39:34.884Z,98.10
2023-01-09T04:42:01.773Z,98.10
2023-01-09T04:44:28.763Z,98.20
2023-01-09T04:46:58.847Z,98.20
2023-01-09T04:49:26.104Z,98.30
2023-01-09T04:51:54.791Z,98.30
2023-01-09T04:54:21.783Z,98.20
2023-01-09T04:56:48.968Z,98.20
2023-01-09T04:59:15.875Z,98.40
2023-01-09T05:01:42.898Z,98.40
2023-01-09T05:04:11.133Z,98.30
2023-01-09T05:06:38.067Z,98.30
2023-01-09T05:09:04.954Z,98.30
2023-01-09T05:11:31.855Z,98.40
2023-01-09T05:13:58.778Z,98.30
2023-01-09T05:16:25.713Z,98.30
2023-01-09T05:18:56.560Z,98.30
2023-01-09T05:21:27.408Z,98.30
2023-01-09T05:23:54.319Z,98.40
2023-01-09T05:26:24.110Z,98.50
2023-01-09T05:28:52.359Z,98.50
2023-01-09T05:31:20.574Z,98.60
2023-01-09T05:33:47.532Z,98.50
2023-01-09T05:36:14.606Z,98.50
2023-01-09T05:38:41.565Z,98.50
2023-01-09T05:41:08.516Z,98.50
2023-01-09T05:43:35.428Z,98.50
2023-01-09T05:46:02.362Z,98.40
2023-01-09T05:48:29.572Z,98.30
2023-01-09T05:50:56.486Z,98.40
2023-01-09T05:53:23.362Z,98.30
2023-01-09T05:55:50.265Z,98.40
2023-01-09T05:58:17.138Z,98.30
2023-01-09T06:00:44.043Z,98.30
2023-01-09T06:03:10.998Z,98.30
2023-01-09T06:05:37.935Z,98.20
2023-01-09T06:08:04.884Z,98.10
2023-01-09T06:10:31.775Z,98.20
2023-01-09T06:12:58.654Z,98.10
2023-01-09T06:15:25.548Z,98.00
2023-01-09T06:17:52.421Z,98.00
2023-01-09T06:20:19.546Z,97.90
2023-01-09T06:22:46.419Z,97.90
2023-01-09T06:25:13.845Z,97.90
2023-01-09T06:27:40.712Z,97.80
2023-01-09T06:30:08.725Z,97.70
2023-01-09T06:32:35.628Z,97.80
2023-01-09T06:35:02.949Z,97.70
2023-01-09T06:37:29.871Z,97.40
2023-01-09T06:39:56.811Z,97.40
2023-01-09T06:42:23.682Z,97.40
2023-01-09T06:44:50.582Z,97.40
2023-01-09T06:47:17.719Z,97.50
2023-01-09T06:49:44.676Z,97.60
2023-01-09T06:52:11.567Z,97.60
2023-01-09T06:54:38.457Z,97.70
2023-01-09T06:57:05.372Z,97.60
2023-01-09T06:59:32.247Z,97.60
2023-01-09T07:01:59.226Z,97.60
2023-01-09T07:04:26.219Z,97.50
2023-01-09T07:06:53.110Z,97.40
2023-01-09T07:09:19.975Z,97.30
2023-01-09T07:11:46.885Z,97.20
2023-01-09T07:14:13.799Z,97.30
2023-01-09T07:16:40.696Z,97.30
2023-01-09T07:19:07.621Z,97.30
2023-01-09T07:21:34.501Z,97.20
2023-01-09T07:24:01.380Z,97.10
2023-01-09T07:26:28.253Z,97.20
2023-01-09T07:28:55.152Z,97.10
2023-01-09T07:31:22.361Z,97.20
2023-01-09T07:33:49.236Z,97.20
2023-01-09T07:36:16.215Z,97.20
2023-01-09T07:38:43.084Z,97.20
2023-01-09T07:41:10.107Z,97.20
2023-01-09T07:43:38.473Z,97.30
2023-01-09T07:46:06.201Z,97.30
2023-01-09T07:48:33.837Z,97.40
2023-01-09T07:51:00.796Z,97.40
2023-01-09T07:53:27.695Z,97.40
2023-01-09T07:55:54.593Z,97.40
2023-01-09T07:58:21.467Z,97.30
2023-01-09T08:00:48.344Z,97.30
2023-01-09T08:03:15.191Z,97.20
2023-01-09T08:05:42.052Z,97.20
2023-01-09T08:08:08.920Z,97.20
2023-01-09T08:10:35.816Z,97.20
2023-01-09T08:13:03.189Z,97.10
2023-01-09T08:15:30.807Z,97.10
2023-01-09T08:17:57.651Z,97.10
2023-01-09T08:20:24.543Z,97.30
2023-01-09T08:22:53.538Z,97.40
2023-01-09T08:25:20.971Z,97.50
2023-01-09T08:27:48.004Z,97.60
2023-01-09T08:30:16.326Z,97.60
2023-01-09T08:32:43.245Z,97.70
2023-01-09T08:35:10.355Z,97.70
2023-01-09T08:37:37.215Z,97.80
2023-01-09T08:40:04.512Z,97.80
2023-01-09T08:42:49.995Z,97.80
2023-01-09T08:45:35.473Z,97.80
2023-01-09T08:48:02.391Z,97.80
2023-01-09T08:50:29.253Z,97.80
2023-01-09T08:52:56.144Z,97.80
2023-01-09T08:55:23.031Z,97.80
2023-01-09T08:57:54.208Z,98.00
2023-01-09T09:00:23.945Z,98.00
2023-01-09T09:02:56.556Z,98.00
2023-01-09T09:05:25.259Z,98.00
2023-01-09T09:07:54.817Z,98.00
2023-01-09T09:10:23.866Z,98.00
2023-01-09T09:12:52.673Z,98.00
2023-01-09T09:15:26.536Z,98.00
2023-01-09T09:18:03.015Z,98.10
2023-01-09T09:20:34.998Z,98.10
2023-01-09T09:23:01.924Z,98.10
2023-01-09T09:25:29.552Z,98.10
2023-01-09T09:27:56.469Z,98.20
2023-01-09T09:30:24.140Z,98.10
2023-01-09T09:32:51.140Z,98.10
2023-01-09T09:35:18.691Z,98.10
2023-01-09T09:37:58.092Z,98.00
2023-01-09T09:41:01.150Z,97.90
2023-01-09T09:44:24.032Z,98.00
2023-01-09T09:47:06.658Z,98.00
2023-01-09T09:50:06.430Z,98.00
2023-01-09T09:53:15.406Z,98.00
2023-01-09T09:55:43.099Z,98.00
2023-01-09T09:58:17.763Z,98.10
2023-01-09T10:00:44.690Z,98.00
2023-01-09T10:03:34.296Z,98.00
2023-01-09T10:06:07.671Z,98.10
2023-01-09T10:09:37.136Z,98.00
2023-01-09T10:12:39.634Z,97.80
2023-01-09T10:15:19.723Z,97.70
2023-01-09T10:18:04.720Z,97.70
2023-01-09T10:20:54.765Z,97.70
2023-01-09T10:23:59.825Z,97.60
2023-01-09T10:26:38.233Z,97.60
2023-01-09T10:29:40.232Z,97.60
2023-01-09T10:32:33.508Z,97.60
2023-01-09T10:35:22.378Z,97.70
2023-01-09T10:37:53.381Z,97.80
2023-01-09T10:40:27.271Z,97.80
2023-01-09T10:43:09.308Z,97.80
2023-01-09T10:45:54.389Z,97.80
2023-01-09T10:48:38.776Z,97.80
2023-01-09T10:51:25.737Z,97.80
2023-01-09T10:53:56.348Z,97.80
2023-01-09T10:56:27.499Z,97.60
2023-01-09T10:58:55.948Z,97.50
2023-01-09T11:01:31.978Z,97.50
2023-01-09T11:03:59.155Z,97.50
2023-01-09T11:06:37.288Z,97.50
2023-01-09T11:09:06.050Z,97.60
2023-01-09T11:11:40.808Z,97.80
2023-01-09T11:14:31.340Z,97.50
2023-01-09T11:17:02.135Z,97.50
2023-01-09T11:19:33.041Z,97.40
2023-01-09T11:22:18.578Z,97.40
2023-01-09T11:24:46.244Z,97.50
2023-01-09T11:27:13.064Z,98.00
2023-01-09T11:29:41.565Z,97.80
2023-01-09T11:32:23.595Z,97.80
2023-01-09T11:34:50.888Z,97.80
2023-01-09T11:37:26.389Z,97.80
2023-01-09T11:39:53.487Z,97.70
2023-01-09T11:42:45.875Z,97.70
2023-01-09T11:45:27.035Z,97.50
2023-01-09T11:47:54.095Z,97.40
2023-01-09T11:50:24.921Z,97.50
2023-01-09T11:53:19.739Z,97.60
2023-01-09T11:55:55.598Z,97.60
2023-01-09T11:58:22.507Z,97.60
2023-01-09T12:01:22.470Z,97.50
2023-01-09T12:04:31.271Z,97.50
2023-01-09T12:07:38.385Z,97.40
2023-01-09T12:10:30.991Z,97.40
2023-01-09T12:13:12.129Z,97.30
2023-01-09T12:16:25.577Z,97.30
2023-01-09T12:19:37.865Z,97.40
2023-01-09T12:22:37.418Z,97.30
2023-01-09T12:25:20.399Z,97.40
2023-01-09T12:28:46.056Z,97.30
2023-01-09T12:31:52.088Z,97.20
2023-01-09T12:34:44.468Z,97.20
2023-01-09T12:37:51.011Z,97.20
2023-01-09T12:40:42.959Z,97.10
2023-01-09T12:44:01.668Z,97.10
2023-01-09T12:46:46.540Z,97.10
2023-01-09T12:49:31.137Z,97.10
2023-01-09T12:52:17.447Z,97.00
2023-01-09T12:55:05.018Z,97.00
2023-01-09T12:57:37.586Z,97.10
2023-01-09T13:00:15.227Z,97.10
2023-01-09T13:03:11.404Z,97.10
2023-01-09T13:05:47.471Z,97.00
2023-01-09T13:08:24.966Z,96.90
2023-01-09T13:11:19.318Z,96.90
2023-01-09T13:13:59.959Z,96.80
2023-01-09T13:16:41.544Z,96.80
2023-01-09T13:19:24.983Z,96.70
2023-01-09T13:21:52.602Z,96.60
2023-01-09T13:24:54.914Z,96.70
2023-01-09T13:27:24.838Z,96.60
2023-01-09T13:30:08.366Z,96.60
2023-01-09T13:33:12.207Z,96.50
2023-01-09T13:35:57.893Z,96.40
2023-01-09T13:38:27.830Z,96.40
2023-01-09T13:41:36.222Z,96.50
2023-01-09T13:44:21.730Z,96.50
2023-01-09T13:46:52.354Z,96.20
2023-01-09T13:49:40.254Z,96.20
2023-01-09T13:52:38.608Z,96.10
2023-01-09T13:55:26.288Z,96.20
2023-01-09T13:58:13.711Z,96.10
2023-01-09T14:00:44.036Z,95.90
2023-01-09T14:03:32.686Z,96.00
2023-01-09T14:05:59.417Z,95.80
2023-01-09T14:08:29.149Z,95.90
2023-01-09T14:11:00.934Z,96.00
2023-01-09T14:13:43.319Z,95.90
2023-01-09T14:16:36.916Z,95.80
2023-01-09T14:19:33.715Z,95.70
2023-01-09T14:22:01.712Z,95.70
2023-01-09T14:24:52.681Z,95.70
2023-01-09T14:28:06.728Z,95.50
2023-01-09T14:30:37.487Z,95.60
2023-01-09T14:33:29.831Z,95.50
2023-01-09T14:36:15.203Z,95.40
2023-01-09T14:38:51.949Z,95.50
2023-01-09T14:41:57.895Z,95.50
2023-01-09T14:44:32.785Z,95.40
2023-01-09T14:47:24.356Z,95.30
2023-01-09T14:49:59.128Z,95.20
2023-01-09T14:52:34.187Z,95.10
2023-01-09T14:55:04.760Z,95.10
2023-01-09T14:57:34.569Z,95.00
2023-01-09T15:00:12.940Z,95.10
2023-01-09T15:02:41.311Z,95.00
2023-01-09T15:05:16.739Z,95.00
2023-01-09T15:07:51.680Z,95.10
2023-01-09T15:10:26.271Z,95.40
2023-01-09T15:12:56.091Z,95.20
2023-01-09T15:15:24.180Z,95.10
2023-01-09T15:18:08.387Z,95.20
2023-01-09T15:20:35.532Z,95.30
2023-01-09T15:23:05.384Z,95.20
2023-01-09T15:25:39.375Z,95.20
2023-01-09T15:28:32.873Z,95.30
2023-01-09T15:31:09.821Z,95.50
2023-01-09T15:33:39.790Z,95.50
2023-01-09T15:36:17.776Z,95.60
2023-01-09T15:38:45.357Z,95.70
2023-01-09T15:41:37.790Z,95.80
2023-01-09T15:44:08.098Z,95.90
2023-01-09T15:46:34.982Z,96.00
2023-01-09T15:49:01.957Z,96.10
2023-01-09T15:51:29.150Z,96.10
2023-01-09T15:53:58.453Z,96.20
2023-01-09T15:56:30.579Z,96.20
2023-01-09T15:58:59.455Z,96.20
2023-01-09T16:01:40.640Z,96.10
2023-01-09T16:04:11.887Z,96.10
2023-01-09T16:06:47.962Z,96.10
2023-01-09T16:09:23.532Z,96.20
2023-01-09T16:11:54.042Z,96.20
2023-01-09T16:14:39.847Z,96.20
2023-01-09T16:17:15.122Z,96.20
2023-01-09T16:19:50.375Z,96.20
2023-01-09T16:22:34.089Z,96.30
2023-01-09T16:25:22.009Z,96.20
2023-01-09T16:28:24.373Z,96.00
2023-01-09T16:31:08.158Z,95.90
2023-01-09T16:33:35.355Z,95.70
2023-01-09T16:36:04.941Z,95.60
2023-01-09T16:38:31.818Z,95.60
2023-01-09T16:41:18.556Z,95.50
2023-01-09T16:43:46.184Z,95.50
2023-01-09T16:46:15.660Z,95.50
2023-01-09T16:48:43.247Z,95.50
2023-01-09T16:51:20.809Z,95.50
2023-01-09T16:53:48.751Z,95.60
2023-01-09T16:56:22.132Z,95.60
2023-01-09T16:58:49.381Z,95.60
2023-01-09T17:01:16.723Z,95.60
2023-01-09T17:03:44.355Z,95.70
2023-01-09T17:06:30.905Z,95.70
2023-01-09T17:08:58.220Z,95.80
2023-01-09T17:11:31.527Z,95.80
2023-01-09T17:14:02.373Z,95.90
2023-01-09T17:16:30.028Z,95.90
2023-01-09T17:18:57.027Z,95.90
2023-01-09T17:21:28.839Z,95.90
2023-01-09T17:24:14.589Z,96.00
2023-01-09T17:27:04.303Z,96.10
2023-01-09T17:29:31.508Z,96.10
2023-01-09T17:31:58.702Z,96.10
2023-01-09T17:34:25.628Z,96.10
2023-01-09T17:36:55.468Z,96.30
2023-01-09T17:39:23.690Z,96.40
2023-01-09T17:41:50.630Z,96.40
2023-01-09T17:44:17.513Z,96.50
2023-01-09T17:46:45.166Z,96.50
2023-01-09T17:49:21.446Z,96.50
2023-01-09T17:51:48.728Z,96.50
2023-01-09T17:54:15.764Z,96.50
2023-01-09T17:56:50.785Z,96.50
2023-01-09T17:59:18.204Z,96.90
2023-01-09T18:01:45.600Z,96.60
2023-01-09T18:04:12.699Z,96.50
2023-01-09T18:06:39.757Z,96.40
2023-01-09T18:09:07.906Z,96.40
2023-01-09T18:11:35.121Z,96.30
2023-01-09T18:14:02.144Z,96.20
2023-01-09T18:16:29.149Z,96.10
2023-01-09T18:18:58.679Z,96.10
2023-01-09T18:21:27.611Z,96.10
2023-01-09T18:23:55.137Z,96.10
2023-01-09T18:26:22.901Z,96.10
2023-01-09T18:28:57.729Z,96.20
2023-01-09T18:31:26.758Z,96.30
2023-01-09T18:33:56.529Z,96.30
2023-01-09T18:36:30.150Z,96.20
2023-01-09T18:39:00.046Z,96.20
2023-01-09T18:41:27.418Z,96.30
2023-01-09T18:43:57.641Z,96.70
2023-01-09T18:46:25.254Z,96.50
2023-01-09T18:48:57.401Z,96.60
2023-01-09T18:51:26.078Z,96.70
2023-01-09T18:53:53.034Z,97.10
2023-01-09T18:56:21.076Z,96.90
2023-01-09T18:58:48.696Z,97.00
2023-01-09T19:01:16.570Z,97.10
2023-01-09T19:03:43.713Z,97.20
2023-01-09T19:06:10.943Z,97.10
2023-01-09T19:08:38.084Z,97.20
2023-01-09T19:11:05.854Z,97.20
2023-01-09T19:13:36.208Z,97.30
2023-01-09T19:16:05.152Z,97.30
2023-01-09T19:18:39.472Z,97.40
2023-01-09T19:21:22.016Z,97.40
2023-01-09T19:23:49.457Z,97.50
2023-01-09T19:26:23.785Z,97.50
2023-01-09T19:28:54.927Z,97.50
2023-01-09T19:31:24.481Z,97.50
2023-01-09T19:33:52.611Z,97.50
2023-01-09T19:36:20.018Z,97.50
2023-01-09T19:38:47.197Z,97.50
2023-01-09T19:41:19.175Z,97.50
2023-01-09T19:43:46.933Z,97.40
2023-01-09T19:46:20.449Z,97.40
2023-01-09T19:48:48.113Z,97.40
2023-01-09T19:51:17.745Z,97.40
2023-01-09T19:53:44.877Z,97.40
2023-01-09T19:56:21.688Z,97.30
2023-01-09T19:59:00.357Z,97.30
2023-01-09T20:01:34.239Z,97.30
2023-01-09T20:04:07.631Z,97.40
2023-01-09T20:06:35.767Z,97.30
2023-01-09T20:09:04.520Z,97.60
2023-01-09T20:11:32.669Z,97.30
2023-01-09T20:14:00.478Z,97.30
2023-01-09T20:16:30.480Z,97.30
2023-01-09T20:19:01.021Z,97.40
2023-01-09T20:21:29.196Z,97.50
2023-01-09T20:23:59.437Z,97.40
2023-01-09T20:26:28.075Z,97.50
2023-01-09T20:28:55.848Z,97.50
2023-01-09T20:31:25.059Z,97.50
2023-01-09T20:33:52.042Z,97.50
2023-01-09T20:36:21.606Z,97.40
2023-01-09T20:38:48.702Z,97.50
2023-01-09T20:41:22.622Z,97.40
2023-01-09T20:43:54.562Z,97.40
2023-01-09T20:46:24.739Z,97.40
2023-01-09T20:48:51.809Z,97.40
2023-01-09T20:51:18.817Z,97.40
2023-01-09T20:53:48.387Z,97.30
2023-01-09T20:56:15.254Z,97.30
2023-01-09T20:58:42.397Z,97.20
2023-01-09T21:01:14.208Z,97.20
2023-01-09T21:03:42.170Z,97.20
2023-01-09T21:06:15.272Z,97.10
2023-01-09T21:08:43.002Z,97.00
2023-01-09T21:11:10.741Z,97.00
2023-01-09T21:13:38.671Z,97.00
2023-01-09T21:16:12.998Z,97.00
2023-01-09T21:18:40.562Z,97.00
2023-01-09T21:21:13.262Z,97.00
2023-01-09T21:23:49.540Z,96.90
2023-01-09T21:26:17.041Z,96.90
2023-01-09T21:28:48.982Z,96.90
2023-01-09T21:31:22.155Z,96.80
2023-01-09T21:33:49.445Z,96.80
2023-01-09T21:36:17.163Z,96.80
2023-01-09T21:38:45.817Z,96.70
2023-01-09T21:41:33.055Z,96.70
2023-01-09T21:44:18.526Z,96.80
2023-01-09T21:46:51.449Z,97.10
2023-01-09T21:49:20.052Z,96.70
2023-01-09T21:51:46.972Z,96.70
2023-01-09T21:54:13.861Z,96.70
2023-01-09T21:56:40.788Z,96.70
2023-01-09T21:59:07.848Z,96.60
2023-01-09T22:01:34.825Z,96.70
2023-01-09T22:04:01.934Z,96.60
2023-01-09T22:06:28.840Z,96.60
2023-01-09T22:08:56.214Z,96.60
2023-01-09T22:11:23.886Z,96.60
2023-01-09T22:13:51.593Z,96.60
2023-01-09T22:16:19.378Z,96.60
2023-01-09T22:18:46.531Z,96.50
2023-01-09T22:21:13.639Z,96.50
2023-01-09T22:23:40.525Z,96.50
2023-01-09T22:26:13.957Z,96.50
2023-01-09T22:28:41.560Z,96.60
2023-01-09T22:31:10.658Z,96.50
2023-01-09T22:33:37.986Z,96.50
2023-01-09T22:36:08.027Z,96.50
2023-01-09T22:38:35.282Z,96.50
2023-01-09T22:41:02.663Z,96.50
2023-01-09T22:43:30.760Z,96.50
2023-01-09T22:46:06.465Z,96.50
2023-01-09T22:48:34.575Z,96.50
2023-01-09T22:51:06.609Z,96.50
2023-01-09T22:53:33.926Z,96.60
2023-01-09T22:56:08.182Z,96.60
2023-01-09T22:58:35.095Z,96.50
2023-01-09T23:01:02.985Z,96.50
2023-01-09T23:03:29.874Z,96.50
2023-01-09T23:06:05.749Z,96.40
2023-01-09T23:08:33.913Z,96.50
2023-01-09T23:11:08.912Z,96.50
2023-01-09T23:13:35.916Z,96.40
2023-01-09T23:16:02.781Z,96.40
2023-01-09T23:18:29.794Z,96.40
2023-01-09T23:21:00.497Z,96.40
2023-01-09T23:23:29.549Z,96.40
2023-01-09T23:25:59.653Z,96.50
2023-01-09T23:28:28.035Z,96.50
2023-01-09T23:30:54.954Z,96.50
2023-01-09T23:33:21.866Z,96.40
2023-01-09T23:35:49.036Z,96.40
2023-01-09T23:38:16.362Z,96.50
2023-01-09T23:40:43.291Z,96.50
2023-01-09T23:43:11.957Z,96.50
2023-01-09T23:45:44.820Z,96.50
2023-01-09T23:48:16.599Z,96.50
2023-01-09T23:50:53.777Z,96.50
2023-01-09T23:53:22.394Z,96.50
2023-01-09T23:55:52.562Z,96.50
2023-01-09T23:58:19.447Z,96.50
